createdAt,value
2017-07-03T00:00:10.689Z,1021.77
2017-07-03T00:00:36.240Z,1021.77
2017-07-03T00:01:01.787Z,1021.82
2017-07-03T00:01:27.342Z,1021.76
2017-07-03T00:01:52.914Z,1021.74
2017-07-03T00:02:18.488Z,1021.77
2017-07-03T00:02:44.047Z,1021.79
2017-07-03T00:03:09.602Z,1021.76
2017-07-03T00:04:28.970Z,1021.78
2017-07-03T00:04:54.519Z,1021.79
2017-07-03T00:05:20.066Z,1021.78
2017-07-03T00:05:45.621Z,1021.77
2017-07-03T00:06:11.182Z,1021.79
2017-07-03T00:06:36.789Z,1021.77
2017-07-03T00:07:02.354Z,1021.78
2017-07-03T00:07:27.919Z,1021.79
2017-07-03T00:07:53.526Z,1021.82
2017-07-03T00:08:19.125Z,1021.81
2017-07-03T00:08:44.671Z,1021.8
2017-07-03T00:09:58.941Z,1021.78
2017-07-03T00:10:24.499Z,1021.78
2017-07-03T00:10:50.063Z,1021.79
2017-07-03T00:11:15.612Z,1021.8
2017-07-03T00:11:41.173Z,1021.8
2017-07-03T00:12:06.730Z,1021.8
2017-07-03T00:12:32.293Z,1021.8
2017-07-03T00:12:57.852Z,1021.77
2017-07-03T00:13:23.410Z,1021.8
2017-07-03T00:13:48.977Z,1021.79
2017-07-03T00:14:14.547Z,1021.8
2017-07-03T00:14:40.124Z,1021.83
2017-07-03T00:15:05.734Z,1021.81
2017-07-03T00:15:31.320Z,1021.77
2017-07-03T00:15:56.993Z,1021.78
2017-07-03T00:16:22.586Z,1021.82
2017-07-03T00:16:48.142Z,1021.8
2017-07-03T00:17:13.718Z,1021.78
2017-07-03T00:17:39.278Z,1021.77
2017-07-03T00:18:04.869Z,1021.76
2017-07-03T00:18:30.438Z,1021.84
2017-07-03T00:18:55.981Z,1021.81
2017-07-03T00:19:21.533Z,1021.78
2017-07-03T00:19:47.166Z,1021.77
2017-07-03T00:20:12.710Z,1021.76
2017-07-03T00:20:38.268Z,1021.78
2017-07-03T00:21:03.826Z,1021.77
2017-07-03T00:21:29.389Z,1021.76
2017-07-03T00:21:54.955Z,1021.75
2017-07-03T00:22:20.557Z,1021.76
2017-07-03T00:23:19.546Z,1021.77
2017-07-03T00:23:45.121Z,1021.82
2017-07-03T00:24:10.688Z,1021.79
2017-07-03T00:24:36.280Z,1021.75
2017-07-03T00:25:01.836Z,1021.75
2017-07-03T00:25:27.393Z,1021.74
2017-07-03T00:25:52.960Z,1021.75
2017-07-03T00:26:18.523Z,1021.76
2017-07-03T00:26:44.180Z,1021.72
2017-07-03T00:27:09.887Z,1021.77
2017-07-03T00:27:35.451Z,1021.76
2017-07-03T00:28:01.056Z,1021.79
2017-07-03T00:28:26.618Z,1021.73
2017-07-03T00:28:52.204Z,1021.74
2017-07-03T00:29:17.757Z,1021.74
2017-07-03T00:29:43.324Z,1021.73
2017-07-03T00:30:08.895Z,1021.73
2017-07-03T00:30:34.441Z,1021.71
2017-07-03T00:31:00.056Z,1021.74
2017-07-03T00:31:25.598Z,1021.75
2017-07-03T00:31:51.155Z,1021.73
2017-07-03T00:32:16.752Z,1021.72
2017-07-03T00:32:42.316Z,1021.69
2017-07-03T00:33:07.906Z,1021.7
2017-07-03T00:33:33.530Z,1021.75
2017-07-03T00:33:59.098Z,1021.67
2017-07-03T00:34:24.663Z,1021.67
2017-07-03T00:34:50.271Z,1021.72
2017-07-03T00:35:15.836Z,1021.73
2017-07-03T00:35:41.398Z,1021.74
2017-07-03T00:36:06.999Z,1021.71
2017-07-03T00:36:32.565Z,1021.73
2017-07-03T00:36:58.123Z,1021.75
2017-07-03T00:37:23.717Z,1021.75
2017-07-03T00:37:49.300Z,1021.74
2017-07-03T00:38:14.833Z,1021.7
2017-07-03T00:38:40.497Z,1021.74
2017-07-03T00:39:06.059Z,1021.72
2017-07-03T00:39:31.604Z,1021.75
2017-07-03T00:39:57.213Z,1021.75
2017-07-03T00:40:22.775Z,1021.7
2017-07-03T00:40:48.329Z,1021.7
2017-07-03T00:41:13.899Z,1021.75
2017-07-03T00:41:39.458Z,1021.72
2017-07-03T00:42:05.017Z,1021.74
2017-07-03T00:42:30.667Z,1021.76
2017-07-03T00:42:56.217Z,1021.74
2017-07-03T00:43:21.775Z,1021.76
2017-07-03T00:43:47.370Z,1021.77
2017-07-03T00:44:12.991Z,1021.74
2017-07-03T00:44:38.561Z,1021.75
2017-07-03T00:45:04.122Z,1021.74
2017-07-03T00:45:29.710Z,1021.76
2017-07-03T00:45:55.271Z,1021.75
2017-07-03T00:46:20.829Z,1021.79
2017-07-03T00:46:46.465Z,1021.79
2017-07-03T00:47:12.033Z,1021.75
2017-07-03T00:47:37.593Z,1021.76
2017-07-03T00:48:03.170Z,1021.78
2017-07-03T00:48:28.773Z,1021.78
2017-07-03T00:48:54.291Z,1021.81
2017-07-03T00:49:19.912Z,1021.78
2017-07-03T00:49:45.482Z,1021.78
2017-07-03T00:50:11.042Z,1021.82
2017-07-03T00:50:36.733Z,1021.79
2017-07-03T00:51:02.279Z,1021.82
2017-07-03T00:51:27.820Z,1021.83
2017-07-03T00:51:53.389Z,1021.81
2017-07-03T00:52:18.941Z,1021.83
2017-07-03T00:52:44.508Z,1021.85
2017-07-03T00:53:10.087Z,1021.85
2017-07-03T00:53:35.644Z,1021.86
2017-07-03T00:54:01.196Z,1021.87
2017-07-03T00:54:26.838Z,1021.89
2017-07-03T00:54:52.391Z,1021.85
2017-07-03T00:55:17.948Z,1021.88
2017-07-03T00:55:43.559Z,1021.9
2017-07-03T00:56:09.121Z,1021.89
2017-07-03T00:56:34.680Z,1021.88
2017-07-03T00:57:00.273Z,1021.88
2017-07-03T00:57:25.968Z,1021.9
2017-07-03T00:57:51.522Z,1021.9
2017-07-03T00:58:17.086Z,1021.9
2017-07-03T00:58:42.636Z,1021.89
2017-07-03T00:59:08.199Z,1021.91
2017-07-03T00:59:33.757Z,1021.91
2017-07-03T00:59:59.352Z,1021.89
2017-07-03T01:00:24.919Z,1021.92
2017-07-03T01:00:50.476Z,1021.9
2017-07-03T01:01:16.041Z,1021.89
2017-07-03T01:01:41.589Z,1021.91
2017-07-03T01:02:07.210Z,1021.88
2017-07-03T01:02:32.830Z,1021.92
2017-07-03T01:02:58.407Z,1021.89
2017-07-03T01:03:23.995Z,1021.87
2017-07-03T01:03:49.591Z,1021.88
2017-07-03T01:04:15.157Z,1021.85
2017-07-03T01:04:40.724Z,1021.89
2017-07-03T01:05:06.283Z,1021.89
2017-07-03T01:05:31.844Z,1021.9
2017-07-03T01:05:57.396Z,1021.87
2017-07-03T01:06:23.052Z,1021.91
2017-07-03T01:06:48.606Z,1021.87
2017-07-03T01:07:14.188Z,1021.88
2017-07-03T01:07:39.739Z,1021.89
2017-07-03T01:08:05.291Z,1021.89
2017-07-03T01:08:30.860Z,1021.87
2017-07-03T01:08:56.477Z,1021.85
2017-07-03T01:09:22.037Z,1021.87
2017-07-03T01:09:47.603Z,1021.88
2017-07-03T01:10:13.223Z,1021.87
2017-07-03T01:10:38.771Z,1021.91
2017-07-03T01:11:04.344Z,1021.86
2017-07-03T01:11:29.886Z,1021.84
2017-07-03T01:11:55.436Z,1021.87
2017-07-03T01:12:21.016Z,1021.89
2017-07-03T01:12:46.696Z,1021.85
2017-07-03T01:13:12.260Z,1021.88
2017-07-03T01:13:37.821Z,1021.86
2017-07-03T01:14:03.379Z,1021.88
2017-07-03T01:14:28.952Z,1021.86
2017-07-03T01:14:54.513Z,1021.88
2017-07-03T01:15:20.075Z,1021.88
2017-07-03T01:15:45.663Z,1021.89
2017-07-03T01:16:11.221Z,1021.83
2017-07-03T01:16:36.782Z,1021.85
2017-07-03T01:17:02.387Z,1021.85
2017-07-03T01:17:28.028Z,1021.83
2017-07-03T01:17:53.558Z,1021.85
2017-07-03T01:18:19.097Z,1021.86
2017-07-03T01:18:44.640Z,1021.85
2017-07-03T01:19:10.198Z,1021.83
2017-07-03T01:19:35.751Z,1021.86
2017-07-03T01:20:01.385Z,1021.84
2017-07-03T01:20:27.005Z,1021.86
2017-07-03T01:20:52.565Z,1021.85
2017-07-03T01:21:18.128Z,1021.83
2017-07-03T01:21:43.708Z,1021.88
2017-07-03T01:22:09.363Z,1021.84
2017-07-03T01:22:34.932Z,1021.86
2017-07-03T01:23:00.509Z,1021.84
2017-07-03T01:23:26.201Z,1021.86
2017-07-03T01:23:51.769Z,1021.88
2017-07-03T01:24:17.330Z,1021.83
2017-07-03T01:24:42.874Z,1021.86
2017-07-03T01:25:08.420Z,1021.84
2017-07-03T01:25:33.966Z,1021.82
2017-07-03T01:25:59.538Z,1021.82
2017-07-03T01:26:25.100Z,1021.82
2017-07-03T01:26:50.678Z,1021.83
2017-07-03T01:27:16.250Z,1021.82
2017-07-03T01:27:41.811Z,1021.83
2017-07-03T01:28:07.413Z,1021.85
2017-07-03T01:28:32.971Z,1021.81
2017-07-03T01:28:58.520Z,1021.85
2017-07-03T01:29:24.078Z,1021.86
2017-07-03T01:29:49.763Z,1021.83
2017-07-03T01:30:15.461Z,1021.83
2017-07-03T01:30:41.006Z,1021.85
2017-07-03T01:31:06.560Z,1021.84
2017-07-03T01:31:32.125Z,1021.8
2017-07-03T01:31:57.680Z,1021.81
2017-07-03T01:32:23.260Z,1021.79
2017-07-03T01:32:48.827Z,1021.78
2017-07-03T01:33:14.400Z,1021.77
2017-07-03T01:33:39.964Z,1021.79
2017-07-03T01:34:05.533Z,1021.79
2017-07-03T01:34:31.087Z,1021.82
2017-07-03T01:34:56.665Z,1021.8
2017-07-03T01:35:22.321Z,1021.75
2017-07-03T01:35:47.872Z,1021.78
2017-07-03T01:36:13.448Z,1021.75
2017-07-03T01:36:39.009Z,1021.74
2017-07-03T01:37:04.571Z,1021.79
2017-07-03T01:37:30.157Z,1021.73
2017-07-03T01:37:55.724Z,1021.79
2017-07-03T01:38:21.339Z,1021.76
2017-07-03T01:38:46.918Z,1021.76
2017-07-03T01:39:12.579Z,1021.83
2017-07-03T01:39:38.118Z,1021.82
2017-07-03T01:40:03.691Z,1021.81
2017-07-03T01:40:29.262Z,1021.83
2017-07-03T01:40:54.818Z,1021.82
2017-07-03T01:41:20.397Z,1021.82
2017-07-03T01:41:46.064Z,1021.82
2017-07-03T01:42:11.655Z,1021.81
2017-07-03T01:42:37.253Z,1021.79
2017-07-03T01:43:02.811Z,1021.82
2017-07-03T01:43:28.391Z,1021.85
2017-07-03T01:43:53.939Z,1021.86
2017-07-03T01:44:19.512Z,1021.79
2017-07-03T01:44:45.089Z,1021.83
2017-07-03T01:45:10.643Z,1021.84
2017-07-03T01:45:36.198Z,1021.82
2017-07-03T01:46:01.760Z,1021.8
2017-07-03T01:46:27.311Z,1021.8
2017-07-03T01:46:52.920Z,1021.85
2017-07-03T01:47:18.521Z,1021.84
2017-07-03T01:47:44.081Z,1021.83
2017-07-03T01:48:09.679Z,1021.82
2017-07-03T01:48:35.259Z,1021.83
2017-07-03T01:49:00.802Z,1021.81
2017-07-03T01:49:26.403Z,1021.81
2017-07-03T01:49:52.020Z,1021.8
2017-07-03T01:50:17.571Z,1021.83
2017-07-03T01:50:43.133Z,1021.82
2017-07-03T01:51:08.706Z,1021.81
2017-07-03T01:51:34.260Z,1021.8
2017-07-03T01:51:59.837Z,1021.79
2017-07-03T01:52:25.388Z,1021.76
2017-07-03T01:52:50.952Z,1021.8
2017-07-03T01:53:16.607Z,1021.81
2017-07-03T01:53:42.219Z,1021.75
2017-07-03T01:54:07.799Z,1021.77
2017-07-03T01:54:33.360Z,1021.8
2017-07-03T01:54:58.928Z,1021.77
2017-07-03T01:55:24.490Z,1021.72
2017-07-03T01:55:50.102Z,1021.74
2017-07-03T01:56:15.713Z,1021.76
2017-07-03T01:56:41.270Z,1021.75
2017-07-03T01:57:06.827Z,1021.74
2017-07-03T01:57:32.390Z,1021.75
2017-07-03T01:57:57.961Z,1021.76
2017-07-03T01:58:23.538Z,1021.73
2017-07-03T01:58:49.110Z,1021.76
2017-07-03T01:59:14.672Z,1021.72
2017-07-03T01:59:40.231Z,1021.75
2017-07-03T02:00:05.854Z,1021.76
2017-07-03T02:00:31.395Z,1021.72
2017-07-03T02:00:56.962Z,1021.76
2017-07-03T02:01:22.611Z,1021.75
2017-07-03T02:01:48.160Z,1021.78
2017-07-03T02:02:13.798Z,1021.78
2017-07-03T02:02:39.356Z,1021.76
2017-07-03T02:03:04.943Z,1021.77
2017-07-03T02:03:30.497Z,1021.77
2017-07-03T02:03:56.074Z,1021.77
2017-07-03T02:04:21.645Z,1021.81
2017-07-03T02:04:47.202Z,1021.78
2017-07-03T02:05:12.769Z,1021.75
2017-07-03T02:05:38.331Z,1021.79
2017-07-03T02:06:03.883Z,1021.81
2017-07-03T02:06:29.499Z,1021.79
2017-07-03T02:06:55.097Z,1021.82
2017-07-03T02:07:20.650Z,1021.81
2017-07-03T02:07:46.206Z,1021.81
2017-07-03T02:08:11.780Z,1021.83
2017-07-03T02:08:37.354Z,1021.85
2017-07-03T02:09:02.912Z,1021.85
2017-07-03T02:09:28.520Z,1021.88
2017-07-03T02:09:54.093Z,1021.9
2017-07-03T02:10:19.654Z,1021.88
2017-07-03T02:10:45.259Z,1021.86
2017-07-03T02:11:10.768Z,1021.88
2017-07-03T02:11:36.332Z,1021.87
2017-07-03T02:12:02.024Z,1021.9
2017-07-03T02:12:27.582Z,1021.86
2017-07-03T02:12:53.144Z,1021.89
2017-07-03T02:13:18.731Z,1021.91
2017-07-03T02:13:44.295Z,1021.89
2017-07-03T02:14:09.870Z,1021.92
2017-07-03T02:14:35.431Z,1021.86
2017-07-03T02:15:00.980Z,1021.85
2017-07-03T02:15:26.545Z,1021.87
2017-07-03T02:15:52.117Z,1021.85
2017-07-03T02:16:17.674Z,1021.85
2017-07-03T02:16:43.240Z,1021.82
2017-07-03T02:17:08.921Z,1021.86
2017-07-03T02:17:34.489Z,1021.87
2017-07-03T02:18:00.063Z,1021.84
2017-07-03T02:18:25.628Z,1021.85
2017-07-03T02:18:51.171Z,1021.88
2017-07-03T02:19:16.739Z,1021.89
2017-07-03T02:19:42.390Z,1021.87
2017-07-03T02:20:07.956Z,1021.81
2017-07-03T02:20:33.523Z,1021.83
2017-07-03T02:20:59.097Z,1021.82
2017-07-03T02:21:24.661Z,1021.79
2017-07-03T02:21:50.221Z,1021.86
2017-07-03T02:22:15.788Z,1021.83
2017-07-03T02:22:41.397Z,1021.83
2017-07-03T02:23:06.939Z,1021.86
2017-07-03T02:23:32.488Z,1021.83
2017-07-03T02:23:58.045Z,1021.83
2017-07-03T02:24:23.661Z,1021.83
2017-07-03T02:24:49.211Z,1021.86
2017-07-03T02:25:14.768Z,1021.8
2017-07-03T02:25:40.334Z,1021.87
2017-07-03T02:26:05.897Z,1021.83
2017-07-03T02:26:31.541Z,1021.83
2017-07-03T02:26:57.101Z,1021.83
2017-07-03T02:27:22.661Z,1021.81
2017-07-03T02:27:48.350Z,1021.84
2017-07-03T02:28:13.924Z,1021.8
2017-07-03T02:28:39.471Z,1021.83
2017-07-03T02:29:05.160Z,1021.81
2017-07-03T02:29:30.719Z,1021.82
2017-07-03T02:29:56.261Z,1021.85
2017-07-03T02:30:21.816Z,1021.86
2017-07-03T02:30:47.398Z,1021.8
2017-07-03T02:31:12.943Z,1021.82
2017-07-03T02:31:38.492Z,1021.85
2017-07-03T02:32:04.048Z,1021.84
2017-07-03T02:32:29.626Z,1021.84
2017-07-03T02:32:55.199Z,1021.8
2017-07-03T02:33:20.881Z,1021.85
2017-07-03T02:33:46.438Z,1021.8
2017-07-03T02:34:12.057Z,1021.83
2017-07-03T02:34:37.620Z,1021.81
2017-07-03T02:35:03.182Z,1021.81
2017-07-03T02:35:28.748Z,1021.78
2017-07-03T02:35:54.351Z,1021.78
2017-07-03T02:36:19.898Z,1021.73
2017-07-03T02:36:45.471Z,1021.78
2017-07-03T02:37:11.101Z,1021.76
2017-07-03T02:37:36.666Z,1021.73
2017-07-03T02:38:02.240Z,1021.74
2017-07-03T02:38:27.817Z,1021.75
2017-07-03T02:38:53.377Z,1021.79
2017-07-03T02:39:18.986Z,1021.74
2017-07-03T02:39:44.547Z,1021.79
2017-07-03T02:40:10.099Z,1021.73
2017-07-03T02:40:35.669Z,1021.78
2017-07-03T02:41:01.219Z,1021.78
2017-07-03T02:41:26.773Z,1021.73
2017-07-03T02:41:52.386Z,1021.74
2017-07-03T02:42:17.949Z,1021.72
2017-07-03T02:42:43.518Z,1021.76
2017-07-03T02:43:09.092Z,1021.81
2017-07-03T02:43:34.720Z,1021.8
2017-07-03T02:44:00.286Z,1021.77
2017-07-03T02:44:25.870Z,1021.81
2017-07-03T02:44:51.499Z,1021.75
2017-07-03T02:45:17.061Z,1021.79
2017-07-03T02:45:42.684Z,1021.81
2017-07-03T02:46:08.240Z,1021.79
2017-07-03T02:46:33.788Z,1021.81
2017-07-03T02:46:59.349Z,1021.82
2017-07-03T02:47:24.969Z,1021.81
2017-07-03T02:47:50.588Z,1021.83
2017-07-03T02:48:16.149Z,1021.82
2017-07-03T02:48:41.710Z,1021.81
2017-07-03T02:49:07.269Z,1021.82
2017-07-03T02:49:32.826Z,1021.81
2017-07-03T02:49:58.401Z,1021.83
2017-07-03T02:50:23.980Z,1021.85
2017-07-03T02:50:49.547Z,1021.84
2017-07-03T02:51:15.140Z,1021.84
2017-07-03T02:51:40.719Z,1021.86
2017-07-03T02:52:06.257Z,1021.85
2017-07-03T02:52:31.858Z,1021.86
2017-07-03T02:52:57.438Z,1021.85
2017-07-03T02:53:22.995Z,1021.86
2017-07-03T02:53:48.552Z,1021.83
2017-07-03T02:54:14.133Z,1021.84
2017-07-03T02:54:39.698Z,1021.81
2017-07-03T02:55:05.254Z,1021.85
2017-07-03T02:55:30.843Z,1021.86
2017-07-03T02:55:56.400Z,1021.92
2017-07-03T02:56:21.951Z,1021.88
2017-07-03T02:56:47.513Z,1021.86
2017-07-03T02:57:13.133Z,1021.87
2017-07-03T02:57:38.743Z,1021.89
2017-07-03T02:58:04.349Z,1021.84
2017-07-03T02:58:29.895Z,1021.89
2017-07-03T02:58:55.510Z,1021.86
2017-07-03T02:59:21.096Z,1021.84
2017-07-03T02:59:46.653Z,1021.83
2017-07-03T03:00:12.207Z,1021.82
2017-07-03T03:00:37.767Z,1021.81
2017-07-03T03:01:03.320Z,1021.83
2017-07-03T03:01:28.876Z,1021.88
2017-07-03T03:01:54.431Z,1021.83
2017-07-03T03:02:20.013Z,1021.83
2017-07-03T03:02:45.653Z,1021.84
2017-07-03T03:03:11.191Z,1021.81
2017-07-03T03:03:36.752Z,1021.85
2017-07-03T03:04:02.326Z,1021.84
2017-07-03T03:04:27.885Z,1021.81
2017-07-03T03:04:53.437Z,1021.79
2017-07-03T03:05:19.149Z,1021.81
2017-07-03T03:05:44.748Z,1021.84
2017-07-03T03:06:10.310Z,1021.81
2017-07-03T03:06:35.883Z,1021.84
2017-07-03T03:07:01.506Z,1021.8
2017-07-03T03:07:27.067Z,1021.82
2017-07-03T03:07:52.632Z,1021.82
2017-07-03T03:08:18.196Z,1021.82
2017-07-03T03:08:43.887Z,1021.82
2017-07-03T03:09:09.458Z,1021.84
2017-07-03T03:09:35.070Z,1021.82
2017-07-03T03:10:00.676Z,1021.82
2017-07-03T03:10:26.236Z,1021.83
2017-07-03T03:10:51.790Z,1021.83
2017-07-03T03:11:17.374Z,1021.81
2017-07-03T03:11:42.919Z,1021.8
2017-07-03T03:12:08.472Z,1021.82
2017-07-03T03:12:34.031Z,1021.81
2017-07-03T03:12:59.586Z,1021.82
2017-07-03T03:13:25.130Z,1021.82
2017-07-03T03:13:50.700Z,1021.81
2017-07-03T03:14:16.307Z,1021.8
2017-07-03T03:14:41.859Z,1021.81
2017-07-03T03:15:07.526Z,1021.8
2017-07-03T03:15:33.085Z,1021.81
2017-07-03T03:15:58.700Z,1021.79
2017-07-03T03:16:24.255Z,1021.82
2017-07-03T03:16:49.816Z,1021.83
2017-07-03T03:17:15.385Z,1021.8
2017-07-03T03:17:41.040Z,1021.83
2017-07-03T03:18:06.586Z,1021.82
2017-07-03T03:18:32.159Z,1021.8
2017-07-03T03:18:57.718Z,1021.84
2017-07-03T03:19:23.270Z,1021.81
2017-07-03T03:19:48.829Z,1021.79
2017-07-03T03:20:14.482Z,1021.79
2017-07-03T03:20:40.037Z,1021.85
2017-07-03T03:21:05.597Z,1021.82
2017-07-03T03:21:31.161Z,1021.81
2017-07-03T03:21:56.712Z,1021.79
2017-07-03T03:22:22.265Z,1021.79
2017-07-03T03:22:47.821Z,1021.74
2017-07-03T03:23:13.424Z,1021.79
2017-07-03T03:23:38.969Z,1021.81
2017-07-03T03:24:04.534Z,1021.8
2017-07-03T03:24:30.100Z,1021.81
2017-07-03T03:24:55.703Z,1021.79
2017-07-03T03:25:21.349Z,1021.81
2017-07-03T03:25:47.000Z,1021.87
2017-07-03T03:26:12.553Z,1021.86
2017-07-03T03:26:38.120Z,1021.84
2017-07-03T03:27:03.676Z,1021.84
2017-07-03T03:27:29.244Z,1021.84
2017-07-03T03:27:54.842Z,1021.82
2017-07-03T03:28:20.385Z,1021.86
2017-07-03T03:28:45.941Z,1021.85
2017-07-03T03:29:11.545Z,1021.84
2017-07-03T03:29:37.135Z,1021.87
2017-07-03T03:30:02.719Z,1021.85
2017-07-03T03:30:28.285Z,1021.84
2017-07-03T03:30:53.919Z,1021.85
2017-07-03T03:31:19.465Z,1021.82
2017-07-03T03:31:45.025Z,1021.8
2017-07-03T03:32:10.594Z,1021.84
2017-07-03T03:32:36.140Z,1021.83
2017-07-03T03:33:01.709Z,1021.84
2017-07-03T03:33:27.289Z,1021.82
2017-07-03T03:33:52.849Z,1021.87
2017-07-03T03:34:18.397Z,1021.85
2017-07-03T03:34:44.025Z,1021.82
2017-07-03T03:35:09.599Z,1021.77
2017-07-03T03:35:35.153Z,1021.81
2017-07-03T03:36:00.795Z,1021.82
2017-07-03T03:36:26.355Z,1021.85
2017-07-03T03:36:51.918Z,1021.8
2017-07-03T03:37:17.480Z,1021.84
2017-07-03T03:37:43.039Z,1021.8
2017-07-03T03:38:08.656Z,1021.82
2017-07-03T03:38:34.212Z,1021.83
2017-07-03T03:38:59.855Z,1021.79
2017-07-03T03:39:25.420Z,1021.79
2017-07-03T03:39:51.037Z,1021.83
2017-07-03T03:40:16.587Z,1021.81
2017-07-03T03:40:42.145Z,1021.78
2017-07-03T03:41:07.720Z,1021.81
2017-07-03T03:41:33.391Z,1021.76
2017-07-03T03:41:58.978Z,1021.79
2017-07-03T03:42:24.531Z,1021.76
2017-07-03T03:42:50.090Z,1021.73
2017-07-03T03:43:15.643Z,1021.77
2017-07-03T03:43:41.206Z,1021.78
2017-07-03T03:44:06.771Z,1021.75
2017-07-03T03:44:32.347Z,1021.79
2017-07-03T03:44:57.927Z,1021.78
2017-07-03T03:45:23.498Z,1021.8
2017-07-03T03:45:49.064Z,1021.79
2017-07-03T03:46:14.649Z,1021.8
2017-07-03T03:46:40.310Z,1021.83
2017-07-03T03:47:05.875Z,1021.8
2017-07-03T03:47:31.416Z,1021.78
2017-07-03T03:47:57.069Z,1021.85
2017-07-03T03:48:22.639Z,1021.85
2017-07-03T03:48:48.187Z,1021.83
2017-07-03T03:49:13.749Z,1021.79
2017-07-03T03:49:39.317Z,1021.79
2017-07-03T03:50:04.889Z,1021.81
2017-07-03T03:50:30.470Z,1021.83
2017-07-03T03:50:56.027Z,1021.82
2017-07-03T03:51:21.582Z,1021.79
2017-07-03T03:51:47.150Z,1021.83
2017-07-03T03:52:12.729Z,1021.81
2017-07-03T03:52:38.275Z,1021.82
2017-07-03T03:53:03.917Z,1021.78
2017-07-03T03:53:29.492Z,1021.76
2017-07-03T03:53:55.038Z,1021.79
2017-07-03T03:54:20.633Z,1021.76
2017-07-03T03:54:46.189Z,1021.73
2017-07-03T03:55:11.749Z,1021.74
2017-07-03T03:55:37.422Z,1021.7
2017-07-03T03:56:02.964Z,1021.74
2017-07-03T03:56:28.513Z,1021.71
2017-07-03T03:56:54.140Z,1021.74
2017-07-03T03:57:19.688Z,1021.69
2017-07-03T03:57:45.252Z,1021.72
2017-07-03T03:58:10.814Z,1021.7
2017-07-03T03:58:36.533Z,1021.7
2017-07-03T03:59:02.087Z,1021.75
2017-07-03T03:59:27.663Z,1021.71
2017-07-03T03:59:53.263Z,1021.7
2017-07-03T04:00:18.815Z,1021.71
2017-07-03T04:00:44.397Z,1021.71
2017-07-03T04:01:10.162Z,1021.68
2017-07-03T04:01:35.739Z,1021.71
2017-07-03T04:02:01.317Z,1021.7
2017-07-03T04:02:26.880Z,1021.69
2017-07-03T04:02:52.441Z,1021.68
2017-07-03T04:03:18.025Z,1021.67
2017-07-03T04:03:43.655Z,1021.67
2017-07-03T04:04:09.213Z,1021.68
2017-07-03T04:04:34.762Z,1021.66
2017-07-03T04:05:00.321Z,1021.67
2017-07-03T04:05:26.001Z,1021.67
2017-07-03T04:05:51.597Z,1021.62
2017-07-03T04:06:17.156Z,1021.66
2017-07-03T04:06:42.721Z,1021.63
2017-07-03T04:07:08.303Z,1021.66
2017-07-03T04:07:33.874Z,1021.7
2017-07-03T04:07:59.441Z,1021.67
2017-07-03T04:08:25.012Z,1021.69
2017-07-03T04:08:50.600Z,1021.67
2017-07-03T04:09:16.093Z,1021.68
2017-07-03T04:09:41.666Z,1021.68
2017-07-03T04:10:07.230Z,1021.68
2017-07-03T04:10:32.796Z,1021.69
2017-07-03T04:10:58.351Z,1021.69
2017-07-03T04:11:23.970Z,1021.66
2017-07-03T04:11:49.670Z,1021.67
2017-07-03T04:12:15.233Z,1021.65
2017-07-03T04:12:40.794Z,1021.67
2017-07-03T04:13:06.357Z,1021.65
2017-07-03T04:13:31.916Z,1021.63
2017-07-03T04:13:57.483Z,1021.65
2017-07-03T04:14:23.148Z,1021.61
2017-07-03T04:14:48.728Z,1021.65
2017-07-03T04:15:14.301Z,1021.62
2017-07-03T04:15:39.873Z,1021.64
2017-07-03T04:16:05.485Z,1021.63
2017-07-03T04:16:31.086Z,1021.62
2017-07-03T04:16:56.649Z,1021.63
2017-07-03T04:17:22.291Z,1021.6
2017-07-03T04:17:47.945Z,1021.59
2017-07-03T04:18:13.496Z,1021.61
2017-07-03T04:18:39.057Z,1021.58
2017-07-03T04:19:04.621Z,1021.56
2017-07-03T04:19:30.183Z,1021.59
2017-07-03T04:19:55.739Z,1021.57
2017-07-03T04:20:21.362Z,1021.57
2017-07-03T04:20:46.948Z,1021.59
2017-07-03T04:21:12.510Z,1021.57
2017-07-03T04:21:38.066Z,1021.62
2017-07-03T04:22:03.636Z,1021.61
2017-07-03T04:22:29.213Z,1021.59
2017-07-03T04:22:54.840Z,1021.61
2017-07-03T04:23:20.407Z,1021.6
2017-07-03T04:23:46.003Z,1021.65
2017-07-03T04:24:11.601Z,1021.66
2017-07-03T04:24:37.157Z,1021.68
2017-07-03T04:25:02.709Z,1021.69
2017-07-03T04:25:28.315Z,1021.66
2017-07-03T04:25:53.885Z,1021.7
2017-07-03T04:26:19.437Z,1021.72
2017-07-03T04:26:45.005Z,1021.69
2017-07-03T04:27:10.590Z,1021.77
2017-07-03T04:27:36.150Z,1021.75
2017-07-03T04:28:01.718Z,1021.77
2017-07-03T04:28:27.281Z,1021.76
2017-07-03T04:28:52.829Z,1021.81
2017-07-03T04:29:18.523Z,1021.8
2017-07-03T04:29:44.081Z,1021.86
2017-07-03T04:30:09.632Z,1021.84
2017-07-03T04:30:35.189Z,1021.85
2017-07-03T04:31:00.747Z,1021.88
2017-07-03T04:31:26.315Z,1021.88
2017-07-03T04:31:51.890Z,1021.85
2017-07-03T04:32:17.499Z,1021.87
2017-07-03T04:32:43.061Z,1021.91
2017-07-03T04:33:08.623Z,1021.89
2017-07-03T04:33:34.297Z,1021.88
2017-07-03T04:33:59.898Z,1021.86
2017-07-03T04:34:25.455Z,1021.88
2017-07-03T04:34:51.013Z,1021.9
2017-07-03T04:35:16.555Z,1021.87
2017-07-03T04:35:42.115Z,1021.89
2017-07-03T04:36:07.704Z,1021.89
2017-07-03T04:36:33.267Z,1021.91
2017-07-03T04:36:58.831Z,1021.96
2017-07-03T04:37:24.396Z,1021.93
2017-07-03T04:37:49.956Z,1021.94
2017-07-03T04:38:15.572Z,1021.93
2017-07-03T04:38:41.119Z,1021.97
2017-07-03T04:39:06.673Z,1021.95
2017-07-03T04:39:32.296Z,1021.99
2017-07-03T04:39:57.874Z,1022.04
2017-07-03T04:40:23.436Z,1022.06
2017-07-03T04:40:49.004Z,1022.08
2017-07-03T04:41:14.611Z,1022.05
2017-07-03T04:41:40.173Z,1022.07
2017-07-03T04:42:05.717Z,1022.09
2017-07-03T04:42:31.291Z,1022.11
2017-07-03T04:42:56.845Z,1022.09
2017-07-03T04:43:22.398Z,1022.05
2017-07-03T04:43:47.947Z,1022.08
2017-07-03T04:44:13.515Z,1022.09
2017-07-03T04:44:39.101Z,1022.13
2017-07-03T04:45:04.645Z,1022.18
2017-07-03T04:45:30.222Z,1022.15
2017-07-03T04:45:55.776Z,1022.13
2017-07-03T04:46:21.450Z,1022.1
2017-07-03T04:46:47.037Z,1022.13
2017-07-03T04:47:12.589Z,1022.12
2017-07-03T04:47:38.199Z,1022.09
2017-07-03T04:48:03.765Z,1022.09
2017-07-03T04:48:29.370Z,1022.12
2017-07-03T04:48:54.918Z,1022.12
2017-07-03T04:49:20.527Z,1022.11
2017-07-03T04:49:46.062Z,1022.11
2017-07-03T04:50:11.727Z,1022.06
2017-07-03T04:50:37.339Z,1022.11
2017-07-03T04:51:02.889Z,1022.1
2017-07-03T04:51:28.454Z,1022.11
2017-07-03T04:51:54.087Z,1022.11
2017-07-03T04:52:19.640Z,1022.1
2017-07-03T04:52:45.206Z,1022.1
2017-07-03T04:53:10.824Z,1022.05
2017-07-03T04:53:36.380Z,1022.07
2017-07-03T04:54:01.995Z,1022.09
2017-07-03T04:54:27.556Z,1022.07
2017-07-03T04:54:53.119Z,1022.09
2017-07-03T04:55:18.713Z,1022.11
2017-07-03T04:55:44.285Z,1022.1
2017-07-03T04:56:09.888Z,1022.12
2017-07-03T04:56:35.446Z,1022.11
2017-07-03T04:57:01.011Z,1022.1
2017-07-03T04:57:26.560Z,1022.11
2017-07-03T04:57:52.136Z,1022.07
2017-07-03T04:58:17.760Z,1022.07
2017-07-03T04:58:43.324Z,1022.11
2017-07-03T04:59:08.892Z,1022.09
2017-07-03T04:59:34.505Z,1022.07
2017-07-03T05:00:00.060Z,1022.04
2017-07-03T05:00:25.623Z,1022.05
2017-07-03T05:00:51.224Z,1022.03
2017-07-03T05:01:16.779Z,1022.05
2017-07-03T05:01:42.349Z,1022.06
2017-07-03T05:02:07.920Z,1022.03
2017-07-03T05:02:33.477Z,1022.04
2017-07-03T05:02:59.038Z,1022.06
2017-07-03T05:03:24.610Z,1022.07
2017-07-03T05:03:50.294Z,1022.02
2017-07-03T05:04:15.858Z,1022.05
2017-07-03T05:04:41.498Z,1022.06
2017-07-03T05:05:07.046Z,1022.04
2017-07-03T05:05:32.605Z,1022.05
2017-07-03T05:05:58.198Z,1022.04
2017-07-03T05:06:23.775Z,1022.06
2017-07-03T05:06:49.321Z,1022.02
2017-07-03T05:07:14.923Z,1021.99
2017-07-03T05:07:40.480Z,1022.02
2017-07-03T05:08:06.043Z,1022.03
2017-07-03T05:08:31.601Z,1022.03
2017-07-03T05:08:57.218Z,1022.01
2017-07-03T05:09:22.789Z,1022.04
2017-07-03T05:09:48.355Z,1022.08
2017-07-03T05:10:13.984Z,1022.05
2017-07-03T05:10:39.549Z,1022.06
2017-07-03T05:11:05.139Z,1022.04
2017-07-03T05:11:30.699Z,1022.03
2017-07-03T05:11:56.272Z,1022.06
2017-07-03T05:12:21.835Z,1022.04